Time;durP1;ratioP1;P1;durP2;ratioP2;P2;SDS_P1;SDS_P2;PMS_P1;PMS_P2;Temp;Humidity;BMP_temperature;BMP_pressure;BME280_temperature;BME280_humidity;BME280_pressure;Samples;Min_cycle;Max_cycle;Signal;HPM_P1;HPM_P2
2022/07/10 00:00:40;;;;;;;9.18;1.50;;;17.30;98.10;;;;;;2085625;28;20032;-71
2022/07/10 00:01:41;;;;;;;6.03;1.60;;;17.30;98.20;;;;;;2083259;28;20025;-71
2022/07/10 00:02:42;;;;;;;6.40;1.58;;;17.20;98.70;;;;;;2087779;28;20028;-72
2022/07/10 00:03:44;;;;;;;4.68;1.63;;;17.20;98.70;;;;;;2086228;28;20366;-72
2022/07/10 00:04:44;;;;;;;6.32;1.60;;;17.20;98.90;;;;;;2084182;28;20108;-71
2022/07/10 00:05:45;;;;;;;1.85;0.90;;;17.20;99.20;;;;;;2084629;28;20041;-72
2022/07/10 00:06:46;;;;;;;3.80;1.20;;;17.20;98.40;;;;;;2087044;28;20033;-71
2022/07/10 00:07:48;;;;;;;4.45;1.58;;;17.20;99.10;;;;;;2082851;28;20060;-71
2022/07/10 00:08:48;;;;;;;6.15;1.60;;;17.20;99.40;;;;;;2085371;28;20021;-71
2022/07/10 00:09:49;;;;;;;1.83;1.20;;;17.20;99.30;;;;;;2087780;28;20023;-71
2022/07/10 00:10:49;;;;;;;5.90;1.52;;;17.20;99.10;;;;;;2086324;28;20456;-72
2022/07/10 00:11:50;;;;;;;3.85;1.50;;;17.20;99.40;;;;;;2083749;28;20100;-72
2022/07/10 00:12:51;;;;;;;3.28;1.38;;;17.30;99.40;;;;;;2083417;28;20064;-71
2022/07/10 00:13:52;;;;;;;3.95;1.58;;;17.20;99.50;;;;;;2083794;28;20065;-71
2022/07/10 00:14:52;;;;;;;4.03;1.10;;;17.20;99.80;;;;;;2085075;28;20021;-71
2022/07/10 00:15:53;;;;;;;4.05;1.40;;;17.20;99.90;;;;;;2081666;28;20108;-71
2022/07/10 00:16:53;;;;;;;5.85;1.77;;;17.10;99.90;;;;;;2084150;28;20029;-71
2022/07/10 00:17:54;;;;;;;5.00;1.30;;;17.10;99.90;;;;;;2086603;28;20014;-71
2022/07/10 00:18:55;;;;;;;6.15;1.48;;;17.10;99.90;;;;;;2084439;28;20028;-71
2022/07/10 00:19:55;;;;;;;4.20;1.08;;;17.10;99.90;;;;;;2085228;28;20025;-72
2022/07/10 00:20:56;;;;;;;4.57;1.52;;;17.00;99.90;;;;;;2083534;28;20545;-71
2022/07/10 00:21:57;;;;;;;4.85;1.40;;;17.00;99.90;;;;;;2087777;28;20104;-71
2022/07/10 00:22:57;;;;;;;4.35;1.50;;;17.00;99.90;;;;;;2085763;28;20094;-71
2022/07/10 00:23:58;;;;;;;4.38;1.30;;;17.00;99.90;;;;;;2084165;28;20079;-71
2022/07/10 00:24:58;;;;;;;3.60;1.35;;;17.00;99.90;;;;;;2084524;28;20026;-71
2022/07/10 00:25:59;;;;;;;4.13;1.50;;;17.00;99.90;;;;;;2087170;28;20389;-71
2022/07/10 00:27:00;;;;;;;6.00;1.40;;;17.00;99.90;;;;;;2082983;28;20109;-71
2022/07/10 00:28:00;;;;;;;6.45;1.40;;;17.00;99.90;;;;;;2082217;28;20451;-71
2022/07/10 00:29:01;;;;;;;6.78;1.60;;;17.00;99.90;;;;;;2083128;28;20082;-71
2022/07/10 00:30:03;;;;;;;5.72;1.33;;;17.00;99.90;;;;;;2086408;28;20017;-71
2022/07/10 00:31:03;;;;;;;5.85;1.45;;;17.00;99.90;;;;;;2085310;28;20036;-71
2022/07/10 00:32:04;;;;;;;5.72;1.60;;;17.00;99.90;;;;;;2084284;28;20102;-72
2022/07/10 00:33:05;;;;;;;5.53;1.70;;;16.90;99.90;;;;;;2085172;28;20052;-72
2022/07/10 00:34:06;;;;;;;7.65;1.60;;;16.90;99.90;;;;;;2083835;28;20111;-72
2022/07/10 00:35:07;;;;;;;6.35;1.52;;;16.90;99.90;;;;;;2084037;28;20427;-71
2022/07/10 00:36:08;;;;;;;6.07;1.52;;;17.00;99.90;;;;;;2086002;28;20056;-71
2022/07/10 00:37:09;;;;;;;5.78;1.25;;;16.90;99.90;;;;;;2083352;28;20024;-71
2022/07/10 00:38:10;;;;;;;6.85;1.48;;;16.90;99.90;;;;;;2085318;28;20028;-71
2022/07/10 00:39:10;;;;;;;3.47;1.30;;;16.90;99.90;;;;;;2085657;28;20032;-71
2022/07/10 00:40:12;;;;;;;3.58;1.10;;;16.90;99.90;;;;;;2084809;28;20028;-71
2022/07/10 00:41:12;;;;;;;3.85;1.40;;;16.90;99.90;;;;;;2084133;28;20111;-72
2022/07/10 00:42:14;;;;;;;4.45;1.23;;;16.90;99.90;;;;;;2086344;28;20025;-71
2022/07/10 00:43:15;;;;;;;8.35;1.65;;;16.90;99.90;;;;;;2082805;28;20105;-71
2022/07/10 00:44:16;;;;;;;5.13;1.48;;;16.90;99.90;;;;;;2085723;28;20028;-71
2022/07/10 00:45:17;;;;;;;5.55;1.50;;;16.90;99.90;;;;;;2083750;28;20056;-72
2022/07/10 00:46:20;;;;;;;7.28;1.55;;;16.90;99.90;;;;;;2084129;28;20033;-72
2022/07/10 00:47:20;;;;;;;5.45;1.05;;;16.90;99.90;;;;;;2085301;28;20107;-71
2022/07/10 00:48:21;;;;;;;3.92;1.55;;;16.90;99.90;;;;;;2084063;28;20024;-71
2022/07/10 00:49:22;;;;;;;4.28;1.48;;;16.90;99.90;;;;;;2083989;28;20444;-71
2022/07/10 00:50:23;;;;;;;7.80;2.00;;;16.90;99.90;;;;;;2085260;28;20035;-72
2022/07/10 00:51:29;;;;;;;3.97;1.48;;;16.90;99.90;;;;;;2085560;28;20017;-71
2022/07/10 00:52:30;;;;;;;3.22;1.35;;;16.90;99.90;;;;;;2083934;28;20068;-71
2022/07/10 00:53:30;;;;;;;5.00;1.30;;;16.90;99.90;;;;;;2083899;28;20292;-71
2022/07/10 00:54:32;;;;;;;3.30;1.25;;;16.90;99.90;;;;;;2084912;28;20025;-72
2022/07/10 00:55:36;;;;;;;4.82;1.30;;;16.90;99.90;;;;;;2082982;28;20029;-71
2022/07/10 00:56:36;;;;;;;4.68;1.48;;;17.00;99.90;;;;;;2086786;28;20025;-71
2022/07/10 00:57:39;;;;;;;4.80;1.45;;;16.90;99.90;;;;;;2086779;28;20036;-72
2022/07/10 00:58:41;;;;;;;8.20;1.52;;;17.00;99.90;;;;;;2084720;28;20060;-71
2022/07/10 00:59:42;;;;;;;5.60;1.20;;;17.00;99.90;;;;;;2084673;28;20105;-71
2022/07/10 01:00:43;;;;;;;6.20;2.00;;;17.00;99.90;;;;;;2086131;28;20025;-71
2022/07/10 01:01:44;;;;;;;4.80;1.58;;;17.00;99.90;;;;;;2086465;28;20097;-72
2022/07/10 01:02:45;;;;;;;8.43;1.95;;;16.90;99.90;;;;;;2087981;28;20572;-71
2022/07/10 01:03:47;;;;;;;4.95;1.33;;;16.90;99.90;;;;;;2083938;28;20440;-71
2022/07/10 01:04:47;;;;;;;3.17;1.15;;;16.90;99.90;;;;;;2086025;28;20023;-72
2022/07/10 01:05:48;;;;;;;4.30;1.48;;;17.00;99.90;;;;;;2088375;28;20025;-71
2022/07/10 01:06:48;;;;;;;2.88;1.15;;;17.00;99.90;;;;;;2079997;28;20438;-71
2022/07/10 01:07:49;;;;;;;3.90;1.17;;;17.00;99.90;;;;;;2085806;28;20465;-71
2022/07/10 01:08:50;;;;;;;4.82;1.38;;;17.00;99.90;;;;;;2085095;28;20025;-71
2022/07/10 01:09:50;;;;;;;6.82;1.25;;;17.00;99.90;;;;;;2085927;28;20036;-71
2022/07/10 01:10:51;;;;;;;4.65;1.45;;;17.00;99.90;;;;;;2085989;28;20053;-71
2022/07/10 01:11:52;;;;;;;5.78;1.65;;;17.00;99.90;;;;;;2086098;28;20028;-72
2022/07/10 01:12:53;;;;;;;7.10;1.77;;;17.00;99.90;;;;;;2084660;28;20060;-71
2022/07/10 01:13:54;;;;;;;4.13;1.33;;;17.00;99.90;;;;;;2085918;28;20025;-72
2022/07/10 01:14:55;;;;;;;5.45;1.42;;;17.00;99.90;;;;;;2087977;28;20276;-72
2022/07/10 01:15:57;;;;;;;5.10;1.55;;;17.00;99.90;;;;;;2085174;28;20115;-71
2022/07/10 01:16:58;;;;;;;5.22;1.35;;;17.00;99.90;;;;;;2087138;28;20050;-72
2022/07/10 01:17:59;;;;;;;5.38;1.50;;;17.00;99.90;;;;;;2088023;28;20457;-71
2022/07/10 01:19:00;;;;;;;3.85;1.30;;;17.00;99.90;;;;;;2085859;28;20564;-71
2022/07/10 01:20:08;;;;;;;6.68;1.67;;;17.00;99.90;;;;;;2086598;28;20534;-71
2022/07/10 01:21:29;;;;;;;6.38;1.85;;;17.00;99.90;;;;;;2083272;28;20075;-71
2022/07/10 01:22:29;;;;;;;1.95;1.05;;;17.00;99.90;;;;;;2084984;28;20033;-72
2022/07/10 01:23:30;;;;;;;2.95;1.17;;;17.00;99.90;;;;;;2085793;28;20021;-72
2022/07/10 01:24:31;;;;;;;3.17;1.20;;;17.00;99.90;;;;;;2089622;28;20226;-71
2022/07/10 01:25:32;;;;;;;6.28;1.33;;;17.00;99.90;;;;;;2086183;28;20028;-71
2022/07/10 01:26:33;;;;;;;3.67;1.27;;;17.00;99.90;;;;;;2086118;28;20543;-72
2022/07/10 01:27:34;;;;;;;4.90;1.52;;;17.00;99.90;;;;;;2086192;28;20388;-72
2022/07/10 01:28:34;;;;;;;5.32;1.25;;;16.90;99.90;;;;;;2086170;28;20394;-71
2022/07/10 01:29:36;;;;;;;5.00;1.50;;;16.90;99.90;;;;;;2086843;28;20036;-71
2022/07/10 01:30:37;;;;;;;6.18;1.45;;;16.90;99.90;;;;;;2083032;28;20030;-71
2022/07/10 01:31:39;;;;;;;6.18;1.60;;;16.90;99.90;;;;;;2087330;28;20087;-72
2022/07/10 01:32:40;;;;;;;4.32;1.77;;;17.00;99.90;;;;;;2086994;28;20048;-72
2022/07/10 01:33:41;;;;;;;8.93;1.30;;;16.90;99.90;;;;;;2084804;28;20481;-72
2022/07/10 01:34:42;;;;;;;4.68;1.42;;;16.90;99.90;;;;;;2084405;28;20047;-72
2022/07/10 01:35:43;;;;;;;6.15;1.50;;;16.90;99.90;;;;;;2085328;28;20039;-71
2022/07/10 01:36:43;;;;;;;4.72;1.23;;;16.90;99.90;;;;;;2086658;28;20430;-72
2022/07/10 01:37:45;;;;;;;6.75;1.70;;;16.90;99.90;;;;;;2079980;28;20509;-71
2022/07/10 01:38:45;;;;;;;5.88;1.52;;;16.90;99.90;;;;;;2070076;28;20542;-71
2022/07/10 01:39:46;;;;;;;7.15;1.80;;;16.90;99.90;;;;;;2085319;28;20078;-71
2022/07/10 01:40:47;;;;;;;7.68;1.77;;;16.90;99.90;;;;;;2083633;28;20419;-71
2022/07/10 01:41:47;;;;;;;7.00;2.05;;;16.90;99.90;;;;;;2084279;28;20757;-71
2022/07/10 01:42:48;;;;;;;4.82;1.67;;;16.90;99.90;;;;;;2090242;28;20031;-72
2022/07/10 01:43:49;;;;;;;4.28;1.50;;;16.90;99.90;;;;;;2087355;28;20024;-72
2022/07/10 01:44:49;;;;;;;7.70;1.60;;;16.90;99.90;;;;;;2085386;28;20015;-72
2022/07/10 01:45:51;;;;;;;6.20;1.73;;;16.90;99.90;;;;;;2086761;28;20103;-71
2022/07/10 01:46:51;;;;;;;6.07;1.45;;;16.80;99.90;;;;;;2088467;28;20078;-71
2022/07/10 01:47:52;;;;;;;10.48;2.80;;;16.90;99.90;;;;;;2088283;28;20118;-72
2022/07/10 01:48:56;;;;;;;5.72;1.75;;;16.90;99.90;;;;;;2086312;28;20484;-71
2022/07/10 01:49:56;;;;;;;4.35;1.38;;;16.90;99.90;;;;;;2088178;28;20024;-71
2022/07/10 01:50:57;;;;;;;4.47;1.20;;;16.90;99.90;;;;;;2088541;28;20559;-71
2022/07/10 01:51:58;;;;;;;5.95;1.48;;;16.90;99.90;;;;;;2086340;28;20025;-71
2022/07/10 01:52:58;;;;;;;3.63;1.30;;;16.90;99.90;;;;;;2082695;28;20025;-72
2022/07/10 01:53:59;;;;;;;4.47;1.40;;;17.00;99.90;;;;;;2082804;28;20060;-72
2022/07/10 01:54:59;;;;;;;6.25;1.52;;;16.90;99.90;;;;;;2083751;28;20029;-71
2022/07/10 01:56:04;;;;;;;4.07;1.55;;;16.90;99.90;;;;;;2084350;28;20028;-71
2022/07/10 01:57:05;;;;;;;4.57;1.42;;;16.90;99.90;;;;;;2087329;28;20017;-71
2022/07/10 01:58:06;;;;;;;4.78;1.23;;;16.90;99.90;;;;;;2086887;28;20021;-71
2022/07/10 01:59:06;;;;;;;4.45;1.52;;;16.90;99.90;;;;;;2084518;28;20053;-71
2022/07/10 02:00:09;;;;;;;4.43;1.60;;;16.90;99.90;;;;;;2087601;28;20350;-72
2022/07/10 02:01:10;;;;;;;5.38;1.35;;;16.90;99.90;;;;;;2085307;28;20072;-72
2022/07/10 02:02:11;;;;;;;5.63;1.75;;;16.90;99.90;;;;;;2087223;28;20530;-72
2022/07/10 02:04:43;;;;;;;4.47;1.20;;;16.90;99.90;;;;;;2087922;28;20025;-71
2022/07/10 02:05:43;;;;;;;7.38;1.85;;;16.80;99.90;;;;;;2086019;28;20507;-71
2022/07/10 02:06:44;;;;;;;5.38;1.33;;;16.80;99.90;;;;;;2084503;28;20096;-72
2022/07/10 02:07:45;;;;;;;4.55;1.40;;;16.80;99.90;;;;;;2088257;28;20045;-72
2022/07/10 02:08:45;;;;;;;4.22;1.40;;;16.80;99.90;;;;;;2087024;28;20024;-72
2022/07/10 02:09:46;;;;;;;4.75;1.40;;;16.80;99.90;;;;;;2086239;28;20017;-72
2022/07/10 02:10:57;;;;;;;6.10;1.50;;;16.80;99.90;;;;;;2085004;28;20038;-72
2022/07/10 02:11:58;;;;;;;6.82;1.42;;;16.80;99.90;;;;;;2085073;28;20140;-72
2022/07/10 02:12:59;;;;;;;7.57;1.67;;;16.80;99.90;;;;;;2085221;28;20021;-72
2022/07/10 02:13:59;;;;;;;4.15;1.42;;;16.80;99.90;;;;;;2083544;28;20020;-72
2022/07/10 02:15:01;;;;;;;7.10;1.63;;;16.80;99.90;;;;;;2084604;28;20025;-72
2022/07/10 02:16:02;;;;;;;4.20;1.33;;;16.80;99.90;;;;;;2085855;28;20025;-71
2022/07/10 02:17:04;;;;;;;3.33;1.45;;;16.80;99.90;;;;;;2086467;28;20096;-71
2022/07/10 02:18:04;;;;;;;4.53;1.70;;;16.80;99.90;;;;;;2088068;28;20024;-71
2022/07/10 02:19:05;;;;;;;5.75;1.60;;;16.80;99.90;;;;;;2086836;28;20104;-71
2022/07/10 02:20:06;;;;;;;5.25;1.52;;;16.80;99.90;;;;;;2090721;28;20020;-71
2022/07/10 02:21:07;;;;;;;4.18;1.20;;;16.80;99.90;;;;;;2086178;28;20013;-71
2022/07/10 02:22:08;;;;;;;5.90;1.73;;;16.80;99.90;;;;;;2085877;28;20033;-71
2022/07/10 02:23:09;;;;;;;6.05;1.67;;;16.80;99.90;;;;;;2079021;28;20032;-71
2022/07/10 02:24:09;;;;;;;7.50;1.70;;;16.80;99.90;;;;;;2087774;28;20021;-71
2022/07/10 02:25:10;;;;;;;5.55;1.70;;;16.80;99.90;;;;;;2085938;28;20029;-71
2022/07/10 02:26:10;;;;;;;5.13;1.35;;;16.80;99.90;;;;;;2084777;28;20045;-71
2022/07/10 02:27:11;;;;;;;7.57;1.83;;;16.80;99.90;;;;;;2085719;28;20079;-71
2022/07/10 02:28:11;;;;;;;5.07;1.40;;;16.70;99.90;;;;;;2086760;28;20040;-72
2022/07/10 02:29:12;;;;;;;5.68;1.50;;;16.80;99.90;;;;;;2085236;28;20033;-71
2022/07/10 02:30:13;;;;;;;5.10;1.23;;;16.70;99.90;;;;;;2087994;28;20032;-71
2022/07/10 02:31:13;;;;;;;4.05;1.33;;;16.70;99.90;;;;;;2075298;28;20057;-71
2022/07/10 02:32:14;;;;;;;6.50;1.70;;;16.70;99.90;;;;;;2086091;28;20056;-71
2022/07/10 02:33:14;;;;;;;4.07;1.45;;;16.70;99.90;;;;;;2086747;28;20029;-71
2022/07/10 02:34:15;;;;;;;8.10;1.70;;;16.60;99.90;;;;;;2087776;28;20033;-71
2022/07/10 02:35:16;;;;;;;7.18;1.85;;;16.70;99.90;;;;;;2085387;28;20029;-71
2022/07/10 02:36:16;;;;;;;2.85;1.33;;;16.70;99.90;;;;;;2086456;28;20029;-71
2022/07/10 02:37:17;;;;;;;5.68;1.25;;;16.60;99.90;;;;;;2082413;28;20029;-72
2022/07/10 02:38:18;;;;;;;5.05;1.55;;;16.70;99.90;;;;;;2086289;28;20025;-71
2022/07/10 02:39:18;;;;;;;5.00;1.52;;;16.70;99.90;;;;;;2083428;28;20071;-71
2022/07/10 02:40:19;;;;;;;6.78;1.42;;;16.60;99.90;;;;;;2084195;28;20466;-71
2022/07/10 02:41:20;;;;;;;4.35;2.00;;;16.60;99.90;;;;;;2083996;28;20406;-71
2022/07/10 02:42:20;;;;;;;4.15;1.05;;;16.60;99.90;;;;;;2085813;28;20029;-71
2022/07/10 02:43:21;;;;;;;6.53;1.60;;;16.60;99.90;;;;;;2084897;28;20029;-71
2022/07/10 02:44:21;;;;;;;6.90;1.90;;;16.60;99.90;;;;;;2084349;28;20058;-71
2022/07/10 02:45:22;;;;;;;4.65;1.70;;;16.50;99.90;;;;;;2084718;28;20032;-72
2022/07/10 02:46:23;;;;;;;4.68;1.63;;;16.50;99.90;;;;;;2084270;28;20033;-72
2022/07/10 02:47:23;;;;;;;7.20;1.98;;;16.50;99.90;;;;;;2086539;28;20384;-72
2022/07/10 02:48:24;;;;;;;5.28;1.77;;;16.40;99.90;;;;;;2085323;28;20028;-72
2022/07/10 02:49:25;;;;;;;6.28;1.70;;;16.40;99.90;;;;;;2086479;28;20025;-71
2022/07/10 02:50:25;;;;;;;6.35;1.50;;;16.40;99.90;;;;;;2086002;28;20028;-72
2022/07/10 02:51:26;;;;;;;5.18;1.30;;;16.40;99.90;;;;;;2087281;28;20025;-72
2022/07/10 02:52:26;;;;;;;4.05;1.30;;;16.40;99.90;;;;;;2085018;28;20061;-72
2022/07/10 02:53:27;;;;;;;5.72;1.90;;;16.40;99.90;;;;;;2087662;28;20034;-72
2022/07/10 02:54:28;;;;;;;5.35;1.27;;;16.30;99.90;;;;;;2085119;28;20021;-71
2022/07/10 02:55:31;;;;;;;4.03;1.70;;;16.40;99.90;;;;;;2084928;28;20060;-72
2022/07/10 02:56:32;;;;;;;3.47;1.33;;;16.40;99.90;;;;;;2083995;28;20041;-72
2022/07/10 02:57:32;;;;;;;5.95;1.55;;;16.30;99.90;;;;;;2085227;28;20025;-71
2022/07/10 02:58:33;;;;;;;5.45;1.58;;;16.30;99.90;;;;;;2084107;28;20056;-71
2022/07/10 02:59:34;;;;;;;3.97;1.33;;;16.30;99.90;;;;;;2084419;28;20017;-71
2022/07/10 03:00:35;;;;;;;5.15;1.52;;;16.30;99.90;;;;;;2085434;28;20112;-72
2022/07/10 03:01:35;;;;;;;5.30;1.50;;;16.30;99.90;;;;;;2084385;28;20029;-71
2022/07/10 03:02:36;;;;;;;6.88;1.70;;;16.30;99.90;;;;;;2083112;28;20041;-71
2022/07/10 03:03:36;;;;;;;5.65;1.70;;;16.30;99.90;;;;;;2085464;28;20114;-71
2022/07/10 03:04:37;;;;;;;7.15;2.10;;;16.30;99.90;;;;;;2085573;28;20049;-71
2022/07/10 03:05:38;;;;;;;7.68;1.70;;;16.30;99.90;;;;;;2083224;28;20072;-72
2022/07/10 03:06:38;;;;;;;6.13;1.70;;;16.40;99.90;;;;;;2087148;28;20025;-72
2022/07/10 03:07:39;;;;;;;3.50;1.70;;;16.30;99.90;;;;;;2084449;28;20021;-72
2022/07/10 03:08:39;;;;;;;5.97;1.40;;;16.40;99.90;;;;;;2083736;28;20028;-72
2022/07/10 03:09:40;;;;;;;8.52;1.92;;;16.40;99.90;;;;;;2085848;28;20024;-72
2022/07/10 03:10:41;;;;;;;12.25;1.98;;;16.40;99.90;;;;;;2086271;28;20727;-71
2022/07/10 03:11:41;;;;;;;6.38;1.65;;;16.40;99.90;;;;;;2086545;28;20021;-71
2022/07/10 03:12:42;;;;;;;6.75;2.00;;;16.40;99.90;;;;;;2083410;28;20033;-71
2022/07/10 03:13:42;;;;;;;7.20;1.50;;;16.40;99.90;;;;;;2085344;28;20017;-71
2022/07/10 03:14:43;;;;;;;8.48;1.67;;;16.40;99.90;;;;;;2084098;28;20021;-72
2022/07/10 03:15:44;;;;;;;5.45;1.83;;;16.40;99.90;;;;;;2083653;28;20063;-71
2022/07/10 03:16:44;;;;;;;6.20;2.20;;;16.40;99.90;;;;;;2086727;28;20396;-72
2022/07/10 03:17:45;;;;;;;3.75;1.80;;;16.40;99.90;;;;;;2085854;28;20132;-71
2022/07/10 03:18:45;;;;;;;5.57;2.00;;;16.40;99.90;;;;;;2087744;28;20025;-71
2022/07/10 03:19:46;;;;;;;5.90;1.63;;;16.40;99.90;;;;;;2087385;28;20017;-71
2022/07/10 03:20:47;;;;;;;8.77;1.65;;;16.40;99.90;;;;;;2084233;28;20063;-71
2022/07/10 03:21:47;;;;;;;8.55;2.00;;;16.40;99.90;;;;;;2087164;28;20404;-72
2022/07/10 03:22:48;;;;;;;5.20;1.73;;;16.40;99.90;;;;;;2087779;28;20143;-71
2022/07/10 03:23:49;;;;;;;4.50;1.42;;;16.40;99.90;;;;;;2087452;28;20024;-71
2022/07/10 03:24:49;;;;;;;5.50;1.60;;;16.40;99.90;;;;;;2087899;28;20033;-71
2022/07/10 03:25:50;;;;;;;4.10;1.30;;;16.40;99.90;;;;;;2087225;28;20033;-71
2022/07/10 03:26:51;;;;;;;6.07;1.80;;;16.40;99.90;;;;;;2082051;28;20474;-72
2022/07/10 03:27:51;;;;;;;5.70;1.40;;;16.50;99.90;;;;;;2083958;28;20103;-71
2022/07/10 03:28:52;;;;;;;6.63;1.70;;;16.50;99.90;;;;;;2081571;28;20017;-71
2022/07/10 03:29:52;;;;;;;7.80;1.90;;;16.40;99.90;;;;;;2083328;28;20021;-71
2022/07/10 03:30:53;;;;;;;3.83;1.77;;;16.40;99.90;;;;;;2086837;28;20040;-71
2022/07/10 03:31:53;;;;;;;6.53;1.67;;;16.50;99.90;;;;;;2086288;28;20051;-71
2022/07/10 03:32:54;;;;;;;6.07;1.45;;;16.50;99.90;;;;;;2087792;28;20563;-71
2022/07/10 03:33:54;;;;;;;5.70;1.70;;;16.50;99.90;;;;;;2086055;28;20127;-71
2022/07/10 03:34:55;;;;;;;6.90;1.88;;;16.50;99.90;;;;;;2088436;28;20027;-71
2022/07/10 03:35:56;;;;;;;5.20;1.55;;;16.50;99.90;;;;;;2087995;28;20032;-71
2022/07/10 03:36:56;;;;;;;8.18;1.63;;;16.50;99.90;;;;;;2085554;28;20044;-71
2022/07/10 03:37:57;;;;;;;6.45;1.60;;;16.50;99.90;;;;;;2087426;28;20041;-71
2022/07/10 03:38:58;;;;;;;5.68;1.83;;;16.50;99.90;;;;;;2086803;28;20226;-71
2022/07/10 03:39:58;;;;;;;5.40;1.60;;;16.50;99.90;;;;;;2086993;28;20025;-72
2022/07/10 03:40:59;;;;;;;6.13;1.90;;;16.50;99.90;;;;;;2087498;28;20656;-71
2022/07/10 03:41:59;;;;;;;4.85;1.83;;;16.50;99.90;;;;;;2085214;28;20053;-71
2022/07/10 03:43:00;;;;;;;9.57;1.92;;;16.50;99.90;;;;;;2085968;28;20020;-72
2022/07/10 03:44:01;;;;;;;8.27;1.85;;;16.40;99.90;;;;;;2085524;28;20029;-71
2022/07/10 03:45:01;;;;;;;6.78;1.70;;;16.50;99.90;;;;;;2083023;28;20018;-71
2022/07/10 03:46:02;;;;;;;7.03;1.77;;;16.40;99.90;;;;;;2085758;28;20802;-72
2022/07/10 03:47:03;;;;;;;7.30;1.77;;;16.40;99.90;;;;;;2086753;28;20024;-72
2022/07/10 03:48:04;;;;;;;6.00;1.50;;;16.40;99.90;;;;;;2087212;28;20117;-71
2022/07/10 03:49:04;;;;;;;9.30;2.20;;;16.40;99.90;;;;;;2088869;28;20082;-72
2022/07/10 03:50:05;;;;;;;5.25;1.50;;;16.40;99.90;;;;;;2084994;28;20033;-71
2022/07/10 03:51:06;;;;;;;7.65;1.88;;;16.40;99.90;;;;;;2086117;28;20563;-71
2022/07/10 03:52:07;;;;;;;7.07;1.70;;;16.40;99.90;;;;;;2086272;28;20059;-72
2022/07/10 03:53:08;;;;;;;7.90;2.08;;;16.40;99.90;;;;;;2085841;28;20033;-72
2022/07/10 03:54:09;;;;;;;6.60;1.48;;;16.40;99.90;;;;;;2087212;28;20047;-71
2022/07/10 03:55:09;;;;;;;5.80;1.58;;;16.40;99.90;;;;;;2085392;28;20095;-72
2022/07/10 03:57:53;;;;;;;7.68;1.80;;;16.40;99.90;;;;;;2086951;28;20083;-72
2022/07/10 03:58:49;;;;;;;9.63;1.73;;;16.30;99.90;;;;;;2082134;28;19905;-72
2022/07/10 03:59:50;;;;;;;5.90;1.80;;;16.30;99.90;;;;;;2085802;28;20017;-71
2022/07/10 04:00:51;;;;;;;6.93;2.05;;;16.30;99.90;;;;;;2084131;28;20026;-72
2022/07/10 04:01:51;;;;;;;5.38;1.60;;;16.30;99.90;;;;;;2087125;28;20131;-72
2022/07/10 04:03:04;;;;;;;4.78;1.52;;;16.30;99.90;;;;;;2083912;28;20039;-71
2022/07/10 04:04:05;;;;;;;7.82;2.33;;;16.30;99.90;;;;;;2085714;28;20100;-71
2022/07/10 04:05:06;;;;;;;7.00;1.50;;;16.30;99.90;;;;;;2081745;28;20025;-72
2022/07/10 04:06:07;;;;;;;6.25;1.80;;;16.30;99.90;;;;;;2084360;28;20638;-72
2022/07/10 04:07:08;;;;;;;8.07;2.28;;;16.30;99.90;;;;;;2087876;28;20083;-71
2022/07/10 04:08:09;;;;;;;6.30;1.58;;;16.30;99.90;;;;;;2086355;28;20025;-71
2022/07/10 04:09:10;;;;;;;8.85;2.10;;;16.40;99.90;;;;;;2086954;28;20024;-72
2022/07/10 04:10:10;;;;;;;7.55;2.03;;;16.30;99.90;;;;;;2087062;28;20079;-72
2022/07/10 04:11:11;;;;;;;7.90;1.58;;;16.30;99.90;;;;;;2085071;28;20025;-72
2022/07/10 04:12:11;;;;;;;9.05;2.05;;;16.40;99.90;;;;;;2086605;28;20067;-72
2022/07/10 04:13:12;;;;;;;5.22;1.45;;;16.30;99.90;;;;;;2083231;28;20036;-72
2022/07/10 04:14:12;;;;;;;7.30;1.98;;;16.30;99.90;;;;;;2085361;28;20028;-72
2022/07/10 04:15:13;;;;;;;5.30;1.67;;;16.40;99.90;;;;;;2083093;28;20061;-71
2022/07/10 04:16:14;;;;;;;8.20;1.83;;;16.40;99.90;;;;;;2087106;28;20127;-71
2022/07/10 04:17:14;;;;;;;7.70;2.05;;;16.40;99.90;;;;;;2087171;28;20127;-72
2022/07/10 04:18:15;;;;;;;5.90;1.85;;;16.40;99.90;;;;;;2084334;28;20096;-71
2022/07/10 04:19:15;;;;;;;7.88;1.55;;;16.40;99.90;;;;;;2084564;28;20032;-72
2022/07/10 04:20:17;;;;;;;4.50;1.45;;;16.40;99.90;;;;;;2083840;28;20109;-72
2022/07/10 04:21:18;;;;;;;5.95;2.10;;;16.40;99.90;;;;;;2082121;28;20529;-72
2022/07/10 04:22:19;;;;;;;4.35;1.58;;;16.40;99.90;;;;;;2084554;28;20374;-72
2022/07/10 04:23:19;;;;;;;6.88;2.17;;;16.40;99.90;;;;;;2084180;28;20033;-72
2022/07/10 04:24:20;;;;;;;5.90;1.80;;;16.40;99.90;;;;;;2088090;28;20145;-71
2022/07/10 04:25:21;;;;;;;7.05;1.77;;;16.40;99.90;;;;;;2085051;28;20087;-71
2022/07/10 04:26:21;;;;;;;7.40;1.70;;;16.40;99.90;;;;;;2087739;28;20044;-72
2022/07/10 04:27:22;;;;;;;5.43;1.55;;;16.40;99.90;;;;;;2085879;28;20110;-72
2022/07/10 04:28:22;;;;;;;7.78;1.88;;;16.30;99.90;;;;;;2085231;28;20032;-72
2022/07/10 04:29:23;;;;;;;2.90;1.20;;;16.30;99.90;;;;;;2084078;28;20029;-71
2022/07/10 04:30:24;;;;;;;6.35;1.67;;;16.40;99.90;;;;;;2083114;28;20180;-71
2022/07/10 04:31:24;;;;;;;4.25;1.80;;;16.30;99.90;;;;;;2086377;28;20033;-72
2022/07/10 04:32:25;;;;;;;5.78;2.13;;;16.30;99.90;;;;;;2085346;28;20156;-72
2022/07/10 04:33:26;;;;;;;7.95;2.05;;;16.40;99.90;;;;;;2083077;28;20030;-71
2022/07/10 04:34:26;;;;;;;7.45;1.80;;;16.40;99.90;;;;;;2083982;28;20025;-72
2022/07/10 04:35:27;;;;;;;7.78;2.13;;;16.40;99.90;;;;;;2083994;28;20384;-72
2022/07/10 04:36:28;;;;;;;7.45;1.75;;;16.40;99.90;;;;;;2084411;28;20466;-72
2022/07/10 04:37:29;;;;;;;9.38;1.92;;;16.40;99.90;;;;;;2083332;28;20052;-71
2022/07/10 04:38:34;;;;;;;5.03;1.45;;;16.50;99.90;;;;;;2083948;28;20376;-71
2022/07/10 04:39:37;;;;;;;8.05;1.52;;;16.60;99.90;;;;;;2084016;28;20184;-71
2022/07/10 04:40:38;;;;;;;4.90;1.60;;;16.60;99.90;;;;;;2085271;28;20029;-72
2022/07/10 04:41:39;;;;;;;4.13;1.83;;;16.70;99.90;;;;;;2084896;28;20025;-72
2022/07/10 04:42:39;;;;;;;6.75;1.45;;;16.80;99.90;;;;;;2087254;28;20047;-72
2022/07/10 04:43:40;;;;;;;7.10;2.15;;;16.90;99.90;;;;;;2083562;28;20033;-72
2022/07/10 04:44:41;;;;;;;4.95;1.60;;;17.00;99.90;;;;;;2085542;28;20022;-71
2022/07/10 04:45:42;;;;;;;5.78;1.80;;;17.10;99.90;;;;;;2082869;28;20099;-72
2022/07/10 04:46:44;;;;;;;6.65;1.85;;;17.20;99.90;;;;;;2085924;28;20025;-72
2022/07/10 04:47:44;;;;;;;5.32;1.63;;;17.30;99.90;;;;;;2085820;28;20047;-72
2022/07/10 04:48:45;;;;;;;5.68;1.70;;;17.40;99.90;;;;;;2084245;28;20063;-72
2022/07/10 04:49:45;;;;;;;5.20;1.77;;;17.40;99.90;;;;;;2084659;28;20100;-72
2022/07/10 04:50:46;;;;;;;6.85;2.08;;;17.50;99.90;;;;;;2085328;28;20060;-71
2022/07/10 04:51:46;;;;;;;5.35;1.48;;;17.50;99.90;;;;;;2083361;28;20164;-72
2022/07/10 04:52:47;;;;;;;7.90;1.85;;;17.60;99.90;;;;;;2085304;28;20492;-71
2022/07/10 04:53:48;;;;;;;6.68;1.60;;;17.70;99.90;;;;;;2084096;28;20029;-71
2022/07/10 04:54:48;;;;;;;5.20;1.40;;;17.80;99.90;;;;;;2083509;28;20032;-72
2022/07/10 04:55:49;;;;;;;8.00;1.60;;;17.80;99.90;;;;;;2085211;28;20086;-72
2022/07/10 04:56:50;;;;;;;7.10;1.70;;;17.80;99.90;;;;;;2082681;28;20040;-72
2022/07/10 04:57:50;;;;;;;7.32;1.80;;;17.80;99.90;;;;;;2085332;28;20107;-72
2022/07/10 04:58:51;;;;;;;7.22;1.83;;;17.90;99.90;;;;;;2085290;28;20017;-72
2022/07/10 04:59:52;;;;;;;7.45;1.48;;;17.90;99.90;;;;;;2082239;28;20029;-72
2022/07/10 05:00:52;;;;;;;6.30;2.05;;;17.90;99.90;;;;;;2084123;28;20032;-72
2022/07/10 05:01:53;;;;;;;9.77;2.78;;;17.80;99.90;;;;;;2082206;28;20033;-72
2022/07/10 05:02:54;;;;;;;7.20;1.88;;;17.80;99.90;;;;;;2082430;28;20033;-72
2022/07/10 05:03:55;;;;;;;5.00;1.58;;;17.80;99.90;;;;;;2084715;28;20112;-72
2022/07/10 05:04:56;;;;;;;3.38;1.58;;;17.80;99.90;;;;;;2085563;28;20021;-72
2022/07/10 05:05:57;;;;;;;6.45;1.60;;;17.70;99.90;;;;;;2084025;28;20480;-72
2022/07/10 05:06:57;;;;;;;4.50;1.30;;;17.70;99.90;;;;;;2085183;28;20553;-71
2022/07/10 05:07:58;;;;;;;5.38;1.52;;;17.70;99.90;;;;;;2085027;28;20025;-71
2022/07/10 05:08:59;;;;;;;5.35;1.80;;;17.60;99.90;;;;;;2083255;28;20017;-72
2022/07/10 05:10:00;;;;;;;7.35;2.10;;;17.60;99.90;;;;;;2085495;28;20025;-72
2022/07/10 05:11:01;;;;;;;7.57;2.10;;;17.60;99.90;;;;;;2082758;28;20138;-72
2022/07/10 05:12:02;;;;;;;6.03;2.10;;;17.60;99.90;;;;;;2083768;28;20366;-72
2022/07/10 05:13:02;;;;;;;7.78;1.95;;;17.50;99.90;;;;;;2084116;28;20113;-72
2022/07/10 05:14:03;;;;;;;6.40;1.80;;;17.60;99.90;;;;;;2087305;28;20036;-72
2022/07/10 05:15:04;;;;;;;4.03;1.50;;;17.50;99.90;;;;;;2087115;28;20060;-72
2022/07/10 05:16:05;;;;;;;6.55;1.75;;;17.50;99.90;;;;;;2081080;28;20024;-72
2022/07/10 05:17:05;;;;;;;6.30;1.73;;;17.50;99.90;;;;;;2081621;28;20107;-72
2022/07/10 05:18:06;;;;;;;7.60;1.67;;;17.50;99.90;;;;;;2082341;28;20013;-72
2022/07/10 05:19:07;;;;;;;4.65;1.60;;;17.50;99.90;;;;;;2082399;28;20029;-72
2022/07/10 05:20:08;;;;;;;6.13;1.50;;;17.40;99.90;;;;;;2083771;28;20025;-72
2022/07/10 05:21:09;;;;;;;4.70;1.60;;;17.40;99.90;;;;;;2084438;28;20025;-72